LiveATC.Net - Listen to live air traffic control over the Internet!


ICAO: KCHA  IATA: CHA   Airport: Lovell Field Airport
City: Chattanooga   State/Province: Tennessee
Country: United States   Continent: North America
KCHA METAR Weather: KCHA 110853Z 00000KT 10SM OVC065 22/21 A3012 RMK AO2 RAE04 SLP191 P0000 60004 T02220206 55008 $
KCHA Flight Activity (FlightAware)
KCHA Airport Info   (iFlightPlanner)
KCHA VFR Sectional Chart   (iFlightPlanner) 
KCHA IFR Low Altitude Chart   (iFlightPlanner) 
KCHA IFR High Altitude Chart   (iFlightPlanner) 

KCHA Twr/App
Feed Status: UP   Listeners: 0
Listen in your browser - HTML5 player (in browser, HTML5)
Click here to listen with your own player (launches your MP3 player)
Archive Access: KCHA Twr/App
FacilityFrequency
Chattanooga Approach/Departure119.200
Chattanooga Approach/Departure125.100
Chattanooga Tower118.300

NOTICE

Unauthorized use prohibited. See LiveATC.net Terms of Service


Airport/ARTCC Code
Frequency Search
(e.g., 124.400, 128.75)
Site-wide search
 


Browse Feeds
Top 50 Feeds
HF Oceanic Feeds
Coverage Map
Bad Weather Areas

LiveATC FAQ
Offer LiveATC feed
Contact LiveATC.net
Press Inquiries

LiveATC on iPhone
LiveATC on Android

LiveATC Mobile
(Mobile browser)

ATC Audio Archives
Interesting Recordings

LiveATC Forums


Home Page
About LiveATC.net


Terms of Use
Privacy Policy

AIRMETs/SIGMETs

FAA Airport Status
NAS Status
Arrival Demand


Server Software By:
Icecast.org
Liquidsoap